Tiempo atmosférico en la estación meteorológica de Valle de Hecho, Hecho, Huesca (855 m.)



Fecha
DESCASC
Temp. máxima en grados centígrados (hora)
DESCASC
Temp. mínima en grados centígrados (hora)
DESCASC
Temp. media en grados centígrados
DESCASC
Racha de viento máxima en m/sg (hora)
DESCASC
Velocidad máxima media en intervalos de 10 minutos(hora)
DESCASC
Precipitaciones diarias en mm
DESCASC
Precipitaciones de 00:00 a 06:00 en mm
DESCASC
Precipitaciones de 06:00 a 12:00 en mm
DESCASC
Precipitaciones de 12:00 a 18:00 en mm
DESCASC
Precipitaciones de 18:00 a 24:00 en mm
DESCASC
24-09-2020 20.1 (16:00) 12.5 (09:00) 16.3 8.33 (16:20) 3.33 (16:40) 0.4 0.4 0 0 0
23-09-2020 21.8 (15:40) 11.2 (00:00) 16.5 6.39 (17:10) 2.78 (17:20) 2.4 1.6 0 0 0.8
22-09-2020 22.5 (13:40) 7.1 (00:00) 14.8 6.67 (14:30) 3.06 (14:40) 4.8 0 0 4.8 0
21-09-2020 21.9 (17:00) 11.4 (00:00) 16.6 9.72 (17:40) 6.11 (17:50) 1.2 0 0.4 0.8 0
20-09-2020 22.1 (15:40) 10.9 (00:00) 16.5 6.67 (13:00) 3.61 (14:20) 0 0 0 0 0
19-09-2020 17.1 (16:20) 13.4 (00:00) 15.3 8.61 (03:10) 3.89 (01:50) 18.8 4.8 2.6 1.2 10.2
18-09-2020 22.9 (00:20) 13.6 (00:00) 18.3 13.33 (12:20) 7.22 (12:20) 16 0 0 0.8 15.2
17-09-2020 28.5 (14:50) 12.1 (00:00) 20.3 13.06 (14:10) 6.67 (15:00) 0 0 0 0 0
16-09-2020 30.7 (15:10) 11.8 (00:00) 21.3 9.72 (16:50) 5 (18:10) 0 0 0 0 0
15-09-2020 28.8 (15:10) 14.6 (00:00) 21.7 7.78 (16:00) 3.61 (17:50) 3.2 2.4 0.8 0 0
14-09-2020 30.6 (16:10) 11.1 (00:00) 20.9 9.44 (15:10) 4.72 (15:10) 0 0 0 0 0
13-09-2020 30.4 (15:50) 10.3 (00:00) 20.3 8.06 (12:00) 4.44 (12:00) 0 0 0 0 0
12-09-2020 29.5 (16:40) 10.8 (00:00) 20.2 10.56 (19:00) 4.17 (21:00) 0 0 0 0 0
11-09-2020 28.9 (15:20) 10.2 (00:00) 19.5 9.44 (18:30) 5.83 (18:30) 0 0 0 0 0
10-09-2020 25.1 (15:30) 19 (00:00) 22.1 11.67 (13:20) 7.22 (12:50) 0 0 0 0 0
09-09-2020 26.3 (14:00) 7.5 (00:00) 16.9 12.78 (16:20) 7.5 (16:20) 0 0 0 0 0
08-09-2020 26.9 (17:20) 4.7 (00:00) 15.8 12.22 (01:30) 6.11 (00:10) 0 0 0 0 0
07-09-2020 18.4 (15:50) 12.1 (07:20) 15.3 18.89 (21:00) 9.72 (21:00) 0 0 0 0 0
06-09-2020 25 (15:40) 9.6 (00:00) 17.3 15.83 (20:40) 7.22 (19:10) 0 0 0 0 0
05-09-2020 29.7 (16:10) 10.1 (00:00) 19.9 10.56 (19:10) 5 (17:30) 0 0 0 0 0
04-09-2020 30.7 (16:50) 8.5 (00:00) 19.6 9.17 (15:50) 3.89 (16:30) 0 0 0 0 0
03-09-2020 29.6 (17:30) 7.2 (00:00) 18.4 7.22 (16:30) 3.06 (14:40) 0 0 0 0 0
02-09-2020 25.6 (16:20) 8.5 (00:00) 17.1 11.11 (21:20) 5.56 (20:40) 0 0 0 0 0
01-09-2020 25.1 (15:40) 6.3 (00:00) 15.7 15 (21:00) 6.11 (17:40) 0 0 0 0 0
31-08-2020 24.2 (16:30) 3.5 (00:00) 13.9 11.67 (00:30) 5 (19:00) 0 0 0 0 0
30-08-2020 18.2 (15:30) 10 (00:00) 14.1 16.39 (18:30) 7.5 (14:20) 0 0 0 0 0
29-08-2020 19.5 (13:40) 10.9 (00:00) 15.2 12.5 (12:40) 6.94 (14:10) 0 0 0 0 0
28-08-2020 21.8 (00:00) 14 (00:00) 17.9 11.94 (22:00) 5.83 (23:40) 0 0 0 0 0

Gráficas

Temp. máximas Temp. mínimas Temp. medias Precipitaciones Rachas de viento máximas Velocidades máximas media en intervalos de 10 minutos

Datos horarios

Fecha y hora oficial Temperatura (ºC) Velocidad del viento (km/h) Dirección del viento Racha (km/h) Dirección de racha Precipitación (mm) Presión (hPa) Tendencia (hPa) Humedad (%)
2020-09-26 23:00:00 10 3 Nordeste 14 Noroeste 1.2 -- -- 95
2020-09-26 22:00:00 10.1 2 Sudoeste 6 Norte 7.6 -- -- 94
2020-09-26 21:00:00 10.3 2 Sur 8 Oeste 2.8 -- -- 93
2020-09-26 20:00:00 10.5 4 Oeste 18 Oeste 1.4 -- -- 92
2020-09-26 19:00:00 10.7 6 Oeste 21 Oeste 1.2 -- -- 91
2020-09-26 18:00:00 10.9 6 Noroeste 28 Noroeste 1 -- -- 88
2020-09-26 17:00:00 11.3 11 Noroeste 22 Noroeste 0.4 -- -- 87
2020-09-26 16:00:00 12.1 12 Oeste 31 Oeste 0 -- -- 81
2020-09-26 15:00:00 15.7 17 Noroeste 32 Oeste 0 -- -- 58
2020-09-26 14:00:00 12.7 15 Nordeste 31 Norte 0 -- -- 63
2020-09-26 13:00:00 12.2 12 Norte 26 Norte 0 -- -- 62
2020-09-26 12:00:00 10.3 10 Norte 29 Norte 0 -- -- 70
2020-09-26 11:00:00 9.5 4 Noroeste 19 Oeste 0 -- -- 73
2020-09-26 10:00:00 8.3 12 Noroeste 24 Noroeste 0 -- -- 82
2020-09-26 09:00:00 7.6 5 Sudeste 16 Noroeste 0.2 -- -- 83
2020-09-26 08:00:00 6.6 5 Noroeste 22 Noroeste 0 -- -- 86
2020-09-26 07:00:00 6.8 4 Oeste 19 Noroeste 0 -- -- 83
2020-09-26 06:00:00 6.8 4 Norte 15 Norte 0.2 -- -- 82
2020-09-26 05:00:00 6.6 3 Norte 21 Oeste 0.2 -- -- 87
2020-09-26 04:00:00 6.5 3 Noroeste 22 Noroeste 0.4 -- -- 85
2020-09-26 03:00:00 6.5 8 Noroeste 13 Noroeste 0.2 -- -- 82
2020-09-26 02:00:00 6.6 3 Norte 24 Noroeste 0.2 -- -- 83
2020-09-26 01:00:00 6.9 3 Norte 26 Noroeste 0.8 -- -- 81
2020-09-26 00:00:00 6.8 8 Norte 21 Norte 0.4 -- -- 81
2020-09-25 23:00:00 6.9 8 Norte 31 Noroeste 0.6 -- -- 81
2020-09-25 22:00:00 6.7 11 Noroeste 22 Noroeste 0.8 -- -- 82
2020-09-25 21:00:00 6.6 10 Noroeste 28 Noroeste 1 -- -- 83
2020-09-25 20:00:00 6.6 8 Noroeste 26 Noroeste 0.4 -- -- 80
2020-09-25 19:00:00 6.6 13 Noroeste 22 Norte 1.2 -- -- 83
2020-09-25 18:00:00 6.8 11 Noroeste 28 Noroeste 1 -- -- 81
2020-09-25 17:00:00 8 9 Noroeste 29 Noroeste 0.4 -- -- 79
2020-09-25 16:00:00 7.7 10 Noroeste 27 Oeste 2.8 -- -- 83
2020-09-25 15:00:00 8.4 5 Norte 19 Nordeste 1 -- -- 83
2020-09-25 14:00:00 7.7 10 Norte 27 Oeste 1.4 -- -- 80
2020-09-25 13:00:00 6 10 Noroeste 36 Oeste 1.6 -- -- 88
2020-09-25 12:00:00 6.2 6 Oeste 28 Noroeste 2.4 -- -- 90
2020-09-25 11:00:00 5.1 10 Oeste 26 Noroeste 1.8 -- -- 89
2020-09-25 10:00:00 4.6 12 Oeste 26 Oeste 3.8 -- -- 88
2020-09-25 09:00:00 5.4 12 Noroeste 27 Noroeste 2.2 -- -- 86
2020-09-25 08:00:00 6.5 13 Noroeste 26 Noroeste 1.2 -- -- 79
2020-09-25 07:00:00 7.6 13 Noroeste 39 Noroeste 0 -- -- 73
2020-09-25 06:00:00 7.9 9 Noroeste 21 Noroeste 0.2 -- -- 74
2020-09-25 05:00:00 8.2 11 Noroeste 36 Noroeste 0.4 -- -- 76
2020-09-25 04:00:00 8.7 9 Noroeste 26 Noroeste 0.4 -- -- 82
2020-09-25 03:00:00 9.5 7 Oeste 19 Oeste 0.4 -- -- 86
2020-09-25 02:00:00 10.8 8 Oeste 24 Norte 1.4 -- -- 85
2020-09-25 01:00:00 13.6 8 Sur 22 Sudoeste 0 -- -- 67
2020-09-25 00:00:00 14.6 5 Sur 11 Nordeste 0 -- -- 60
2020-09-24 23:00:00 15.3 6 Oeste 25 Oeste 0 -- -- 60
2020-09-24 22:00:00 15.7 6 Este 14 Sudoeste 0 -- -- 55
2020-09-24 21:00:00 14.5 0 Calma 7 Noroeste 0 -- -- 67
2020-09-24 20:00:00 16.2 0 Calma 6 Noroeste 0 -- -- 61
2020-09-24 19:00:00 17.4 3 Este 14 Oeste 0 -- -- 52
2020-09-24 18:00:00 18.1 6 Noroeste 18 Sudoeste 0 -- -- 49
2020-09-24 17:00:00 19.5 7 Sudoeste 30 Oeste 0 -- -- 46
2020-09-24 16:00:00 20.1 6 Sur 25 Oeste 0 -- -- 47
2020-09-24 15:00:00 19.4 3 Oeste 20 Sudoeste 0 -- -- 55
2020-09-24 14:00:00 18.8 5 Este 10 Este 0 -- -- 56
2020-09-24 13:00:00 18.5 6 Sur 18 Sur 0 -- -- 63
2020-09-24 12:00:00 17.7 4 Sudoeste 11 Sudoeste 0 -- -- 68
2020-09-24 11:00:00 15.8 4 Sur 8 Sudoeste 0 -- -- 87
2020-09-24 10:00:00 13.1 0 Calma 3 Sudeste 0 -- -- 97
2020-09-24 09:00:00 12.5 0 Calma 3 Norte 0 -- -- 96
2020-09-24 08:00:00 12.7 0 Calma 5 Nordeste 0 -- -- 96
2020-09-24 07:00:00 13.1 0 Calma 5 Noroeste 0 -- -- 96
2020-09-24 06:00:00 13.3 0 Calma 5 Sudoeste 0 -- -- 96
2020-09-24 05:00:00 13.5 0 Calma 3 Oeste 0 -- -- 95
2020-09-24 04:00:00 13.6 0 Calma 8 Noroeste 0 -- -- 95
2020-09-24 03:00:00 13.8 4 Oeste 10 Oeste 0.2 -- -- 94
2020-09-24 02:00:00 13.5 5 Oeste 13 Oeste 0 -- -- 95
2020-09-24 01:00:00 13.5 2 Sudoeste 12 Noroeste 0.2 -- -- 94
2020-09-24 00:00:00 13.8 0 Calma 10 Norte 0.8 -- -- 92
2020-09-23 23:00:00 13.8 3 Nordeste 14 Noroeste 0 -- -- 90
2020-09-23 22:00:00 13.5 2 Sudoeste 9 Norte 0 -- -- 89
2020-09-23 21:00:00 14.6 3 Norte 12 Norte 0 -- -- 83
2020-09-23 20:00:00 15.9 5 Norte 10 Norte 0 -- -- 81
2020-09-23 19:00:00 16.8 4 Nordeste 13 Noroeste 0 -- -- 79
2020-09-23 18:00:00 17.7 8 Nordeste 23 Sur 0 -- -- 71
2020-09-23 17:00:00 20.8 8 Sur 19 Sur 0 -- -- 54
2020-09-23 16:00:00 21.4 6 Sur 14 Sudoeste 0 -- -- 50
2020-09-23 15:00:00 20.6 6 Sur 15 Este 0 -- -- 54
2020-09-23 14:00:00 20.2 6 Sur 21 Sur 0 -- -- 54
2020-09-23 13:00:00 19.6 3 Sur 9 Sudeste 0 -- -- 57
2020-09-23 12:00:00 15.7 2 Sur 4 Sur 0 -- -- 84
2020-09-23 11:00:00 13.1 0 Calma 5 Este 0 -- -- 96
2020-09-23 10:00:00 12.3 0 Calma 5 Oeste 0 -- -- 97
2020-09-23 09:00:00 11.4 2 Sudeste 4 Este 0 -- -- 96
2020-09-23 08:00:00 11.3 0 Calma 5 Sur 0 -- -- 96
2020-09-23 07:00:00 11.7 0 Calma 4 Nordeste 0 -- -- 96
2020-09-23 06:00:00 12 2 Oeste 3 Nordeste 0 -- -- 95
2020-09-23 05:00:00 12.4 2 Nordeste 4 Nordeste 0 -- -- 94
2020-09-23 04:00:00 12.6 0 Calma 6 Norte 0 -- -- 92
2020-09-23 03:00:00 13.1 2 Nordeste 13 Noroeste 0 -- -- 91
2020-09-23 02:00:00 13.2 9 Norte 16 Noroeste 1.6 -- -- 91
2020-09-23 01:00:00 12.4 2 Nordeste 4 Noroeste 0 -- -- 93
2020-09-23 00:00:00 12.8 0 Calma 2 Sudoeste 0 -- -- 91
2020-09-22 23:00:00 12.9 0 Calma 3 Sudoeste 0 -- -- 90
2020-09-22 22:00:00 13.2 0 Calma 5 Nordeste 0 -- -- 85
2020-09-22 21:00:00 14.2 3 Norte 10 Norte 0 -- -- 80
2020-09-22 20:00:00 15.2 3 Nordeste 14 Nordeste 0 -- -- 77
2020-09-22 19:00:00 16.8 4 Norte 9 Norte 0 -- -- 73
2020-09-22 18:00:00 18.3 2 Noroeste 9 Oeste 0 -- -- 71
2020-09-22 17:00:00 18.2 6 Norte 15 Nordeste 0 -- -- 69
2020-09-22 16:00:00 16.4 6 Norte 18 Nordeste 0.6 -- -- 83
2020-09-22 15:00:00 14.9 10 Norte 24 Norte 4.2 -- -- 86
2020-09-22 14:00:00 21.5 7 Sur 22 Sur 0 -- -- 49
2020-09-22 13:00:00 20.9 8 Sudeste 17 Sudeste 0 -- -- 54
2020-09-22 12:00:00 18.9 6 Sur 11 Sur 0 -- -- 58
2020-09-22 11:00:00 14.7 3 Este 7 Este 0 -- -- 73
2020-09-22 10:00:00 9.8 3 Este 5 Noroeste 0 -- -- 97
2020-09-22 09:00:00 7.8 0 Calma 4 Sudoeste 0 -- -- 97
2020-09-22 08:00:00 7.1 2 Nordeste 5 Sudoeste 0 -- -- 96
2020-09-22 07:00:00 7.3 0 Calma 6 Noroeste 0 -- -- 95
2020-09-22 06:00:00 7.5 0 Calma 4 Nordeste 0 -- -- 94
2020-09-22 05:00:00 8.2 0 Calma 3 Sudoeste 0 -- -- 94
2020-09-22 04:00:00 8.6 0 Calma 6 Sur 0 -- -- 93
2020-09-22 03:00:00 9.3 0 Calma 3 Sudoeste 0 -- -- 92
2020-09-22 02:00:00 9.9 0 Calma 4 Norte 0 -- -- 92
2020-09-22 01:00:00 10.6 3 Sudoeste 8 Sudoeste 0 -- -- 90
2020-09-22 00:00:00 11.4 3 Sudoeste 8 Sudoeste 0 -- -- 87
2020-09-21 23:00:00 12.7 3 Oeste 6 Noroeste 0 -- -- 80
2020-09-21 22:00:00 13.7 3 Nordeste 12 Noroeste 0 -- -- 76
2020-09-21 21:00:00 14.8 0 Calma 24 Oeste 0 -- -- 74
2020-09-21 20:00:00 16.6 10 Noroeste 31 Oeste 0 -- -- 65
2020-09-21 19:00:00 18.4 18 Noroeste 28 Oeste 0 -- -- 58
2020-09-21 18:00:00 20.3 17 Oeste 35 Oeste 0 -- -- 51
2020-09-21 17:00:00 21.9 10 Noroeste 25 Noroeste 0 -- -- 48
2020-09-21 16:00:00 19.9 8 Oeste 26 Oeste 0 -- -- 58
2020-09-21 15:00:00 20.4 14 Oeste 29 Oeste 0 -- -- 56
2020-09-21 14:00:00 17.9 4 Oeste 30 Noroeste 0.8 -- -- 77
2020-09-21 13:00:00 20.1 6 Oeste 16 Oeste 0 -- -- 53
2020-09-21 12:00:00 20.2 4 Sudeste 12 Sudeste 0 -- -- 62
2020-09-21 11:00:00 16.5 3 Sudeste 6 Sudeste 0 -- -- 75
2020-09-21 10:00:00 13.8 0 Calma 2 Sudeste 0 -- -- 91
2020-09-21 09:00:00 12.5 0 Calma 5 Oeste 0.2 -- -- 95
2020-09-21 08:00:00 12.1 0 Calma 3 Sudoeste 0.2 -- -- 94
2020-09-21 07:00:00 12.1 0 Calma 4 Noroeste 0 -- -- 93
2020-09-21 06:00:00 12.1 0 Calma 3 Oeste 0 -- -- 93
2020-09-21 05:00:00 12.3 0 Calma 4 Oeste 0 -- -- 92
2020-09-21 04:00:00 12.4 0 Calma 6 Noroeste 0 -- -- 91
2020-09-21 03:00:00 13 0 Calma 6 Nordeste 0 -- -- 89
2020-09-21 02:00:00 13.3 3 Nordeste 8 Nordeste 0 -- -- 88
2020-09-21 01:00:00 14 0 Calma 4 Sudoeste 0 -- -- 87
2020-09-21 00:00:00 14.4 2 Nordeste 5 Sudoeste 0 -- -- 84
2020-09-20 23:00:00 14.9 3 Sur 5 Nordeste 0 -- -- 82
2020-09-20 22:00:00 15.5 0 Calma 9 Nordeste 0 -- -- 77
2020-09-20 21:00:00 16.2 3 Nordeste 5 Nordeste 0 -- -- 73
2020-09-20 20:00:00 18.4 2 Nordeste 10 Noroeste 0 -- -- 62
2020-09-20 19:00:00 19.9 6 Oeste 18 Noroeste 0 -- -- 53
2020-09-20 18:00:00 20.5 0 Calma 13 Noroeste 0 -- -- 51
2020-09-20 17:00:00 20.4 6 Noroeste 14 Sudoeste 0 -- -- 52
2020-09-20 16:00:00 21.9 5 Sudoeste 19 Sudoeste 0 -- -- 46
2020-09-20 15:00:00 21.9 6 Sudoeste 23 Oeste 0 -- -- 49
2020-09-20 14:00:00 21 10 Sudoeste 21 Sudoeste 0 -- -- 51
2020-09-20 13:00:00 20.3 10 Oeste 24 Oeste 0 -- -- 57
2020-09-20 12:00:00 19 8 Oeste 16 Oeste 0 -- -- 60
2020-09-20 11:00:00 16.9 5 Sur 9 Sur 0 -- -- 78
2020-09-20 10:00:00 13.7 3 Este 5 Este 0 -- -- 93
2020-09-20 09:00:00 12 0 Calma 4 Noroeste 0 -- -- 96
2020-09-20 08:00:00 11 2 Oeste 3 Sudoeste 0 -- -- 96
2020-09-20 07:00:00 10.9 0 Calma 5 Sur 0 -- -- 96
2020-09-20 06:00:00 11.2 0 Calma 5 Oeste 0 -- -- 95
2020-09-20 05:00:00 11.2 0 Calma 5 Norte 0 -- -- 95
2020-09-20 04:00:00 12.2 3 Nordeste 8 Norte 0 -- -- 96
2020-09-20 03:00:00 12.6 0 Calma 3 Noroeste 0 -- -- 96
2020-09-20 02:00:00 13 0 Calma 5 Nordeste 0 -- -- 96
2020-09-20 01:00:00 13.3 0 Calma 3 Sudeste 0 -- -- 96
2020-09-20 00:00:00 13.4 0 Calma 4 Nordeste 0 -- -- 95
2020-09-19 23:00:00 13.4 2 Nordeste 4 Noroeste 0 -- -- 95
2020-09-19 22:00:00 13.6 2 Nordeste 4 Nordeste 0 -- -- 94
2020-09-19 21:00:00 14.3 0 Calma 6 Sudoeste 0.2 -- -- 93
2020-09-19 20:00:00 14.6 0 Calma 25 Oeste 7.4 -- -- 91
2020-09-19 19:00:00 15 5 Oeste 21 Sudoeste 2.6 -- -- 89
2020-09-19 18:00:00 16.9 9 Sur 26 Sur 0 -- -- 75
2020-09-19 17:00:00 16.7 7 Sudoeste 27 Sudeste 0 -- -- 80
2020-09-19 16:00:00 16.7 10 Sur 21 Sur 0 -- -- 78
2020-09-19 15:00:00 15.7 7 Sudeste 17 Sudeste 0 -- -- 82
2020-09-19 14:00:00 15 8 Sudoeste 17 Sur 0.6 -- -- 89
2020-09-19 13:00:00 15.2 5 Sur 18 Sur 0.6 -- -- 85
2020-09-19 12:00:00 14.6 12 Sudoeste 23 Sudoeste 2 -- -- 89
2020-09-19 11:00:00 15.1 6 Sudoeste 14 Sudoeste 0 -- -- 87
2020-09-19 10:00:00 14.4 6 Sudoeste 16 Oeste 0.2 -- -- 87
2020-09-19 09:00:00 14.4 3 Sudoeste 17 Oeste 0 -- -- 88
2020-09-19 08:00:00 14.1 8 Sudoeste 22 Sudoeste 0 -- -- 87
2020-09-19 07:00:00 14.1 8 Sudoeste 18 Sur 0.4 -- -- 89
2020-09-19 06:00:00 14.2 12 Sudoeste 23 Sudoeste 1.6 -- -- 89
2020-09-19 05:00:00 14.9 9 Sudoeste 22 Sur 1.2 -- -- 84
2020-09-19 04:00:00 15.6 10 Sudoeste 31 Sur 0 -- -- 81
2020-09-19 03:00:00 15.9 11 Sur 26 Sur 0 -- -- 81
2020-09-19 02:00:00 15.6 11 Sudoeste 24 Sudoeste 0 -- -- 88
2020-09-19 01:00:00 14.9 12 Sudoeste 21 Sudoeste 2 -- -- 92
2020-09-19 00:00:00 13.8 3 Sudoeste 7 Oeste 0 -- -- 94
2020-09-18 23:00:00 14.1 0 Calma 8 Oeste 0 -- -- 93
2020-09-18 22:00:00 14.2 0 Calma 8 Norte 0 -- -- 92
2020-09-18 21:00:00 14.4 2 Noroeste 20 Norte 0.4 -- -- 91
2020-09-18 20:00:00 14.7 9 Norte 16 Nordeste 9.6 -- -- 89
2020-09-18 19:00:00 15.9 4 Noroeste 18 Oeste 5.2 -- -- 87
2020-09-18 18:00:00 19 11 Oeste 34 Sudeste 0.8 -- -- 70
2020-09-18 17:00:00 21.5 15 Sudeste 37 Sur 0 -- -- 51
2020-09-18 16:00:00 22 19 Sudeste 44 Sur 0 -- -- 51
2020-09-18 15:00:00 21.8 18 Sur 46 Sur 0 -- -- 50
2020-09-18 14:00:00 20.9 17 Sur 38 Sur 0 -- -- 55
2020-09-18 13:00:00 19.7 19 Sur 48 Sur 0 -- -- 60
2020-09-18 12:00:00 20.6 13 Sur 40 Sudeste 0 -- -- 54
2020-09-18 11:00:00 20.2 17 Sur 41 Sur 0 -- -- 53
2020-09-18 10:00:00 20.2 17 Sur 37 Sur 0 -- -- 52
2020-09-18 09:00:00 19.7 16 Sudoeste 39 Sudoeste 0 -- -- 54
2020-09-18 08:00:00 18.9 13 Sur 36 Sur 0 -- -- 56
2020-09-18 07:00:00 18.8 13 Sudoeste 44 Sudoeste 0 -- -- 54
2020-09-18 06:00:00 21.5 18 Sudoeste 37 Sudoeste 0 -- -- 43
2020-09-18 05:00:00 21.8 9 Sur 28 Sudoeste 0 -- -- 42
2020-09-18 04:00:00 21.8 12 Sur 29 Sur 0 -- -- 41
2020-09-18 03:00:00 21.8 15 Sur 30 Sur 0 -- -- 41
2020-09-18 02:00:00 22.3 12 Sudoeste 26 Sur 0 -- -- 43
2020-09-18 01:00:00 22.6 13 Sudoeste 25 Sudoeste 0 -- -- 41
2020-09-18 00:00:00 22.8 9 Sur 24 Sur 0 -- -- 40
2020-09-17 23:00:00 23 9 Sur 26 Sur 0 -- -- 40
2020-09-17 22:00:00 22.8 10 Sur 26 Sur 0 -- -- 41
2020-09-17 21:00:00 22.4 5 Sur 22 Sudeste 0 -- -- 43
2020-09-17 20:00:00 24 6 Sur 23 Sur 0 -- -- 38
2020-09-17 19:00:00 25 12 Sur 32 Sur 0 -- -- 36
2020-09-17 18:00:00 25.1 9 Sur 29 Sudoeste 0 -- -- 37
2020-09-17 17:00:00 25.5 12 Sur 32 Sudoeste 0 -- -- 36
2020-09-17 16:00:00 25.9 17 Sur 46 Sudoeste 0 -- -- 36
2020-09-17 15:00:00 28.4 24 Sudoeste 47 Sudoeste 0 -- -- 30
2020-09-17 14:00:00 26.8 9 Sur 32 Sudeste 0 -- -- 36
2020-09-17 13:00:00 26.8 13 Sudeste 32 Sudoeste 0 -- -- 38
2020-09-17 12:00:00 25.3 12 Sudoeste 26 Sudoeste 0 -- -- 41
2020-09-17 11:00:00 21.5 3 Este 8 Este 0 -- -- 57
2020-09-17 10:00:00 17.5 0 Calma 4 Este 0 -- -- 71
2020-09-17 09:00:00 14.3 0 Calma 4 Este 0 -- -- 82
2020-09-17 08:00:00 12.4 0 Calma 2 Oeste 0 -- -- 88
2020-09-17 07:00:00 12.2 0 Calma 3 Oeste 0 -- -- 87
2020-09-17 06:00:00 12.3 0 Calma 4 Sudoeste 0 -- -- 86
2020-09-17 05:00:00 12.6 0 Calma 4 Este 0 -- -- 86
2020-09-17 04:00:00 13.2 0 Calma 4 Sudoeste 0 -- -- 84
2020-09-17 03:00:00 13.9 0 Calma 4 Este 0 -- -- 81
2020-09-17 02:00:00 14.6 2 Norte 6 Noroeste 0 -- -- 79
2020-09-17 01:00:00 15.7 0 Calma 9 Nordeste 0 -- -- 75
2020-09-17 00:00:00 16.9 0 Calma 8 Norte 0 -- -- 71
2020-09-16 23:00:00 19.3 2 Nordeste 16 Norte 0 -- -- 63
2020-09-16 22:00:00 20.4 5 Norte 15 Norte 0 -- -- 60
2020-09-16 21:00:00 20.6 8 Noroeste 24 Norte 0 -- -- 58
2020-09-16 20:00:00 21 12 Noroeste 26 Norte 0 -- -- 59
2020-09-16 19:00:00 22.6 16 Norte 33 Noroeste 0 -- -- 51
2020-09-16 18:00:00 28.1 12 Noroeste 23 Norte 0 -- -- 34
2020-09-16 17:00:00 29.9 10 Sur 35 Sudoeste 0 -- -- 30
2020-09-16 16:00:00 30.4 10 Sur 27 Sur 0 -- -- 27
2020-09-16 15:00:00 30.6 8 Sur 29 Sudoeste 0 -- -- 29
2020-09-16 14:00:00 29.8 12 Sur 23 Sur 0 -- -- 32
2020-09-16 13:00:00 29 10 Sur 23 Sudoeste 0 -- -- 33
2020-09-16 12:00:00 27.6 6 Sur 11 Sur 0 -- -- 35
2020-09-16 11:00:00 22.3 3 Este 5 Sudeste 0 -- -- 53
2020-09-16 10:00:00 17.2 0 Calma 3 Sudoeste 0 -- -- 74
2020-09-16 09:00:00 13.3 0 Calma 4 Sudoeste 0 -- -- 87
2020-09-16 08:00:00 11.9 0 Calma 3 Sur 0 -- -- 88
2020-09-16 07:00:00 12.1 0 Calma 4 Sudoeste 0 -- -- 87
2020-09-16 06:00:00 12.3 0 Calma 4 Sudoeste 0 -- -- 86
2020-09-16 05:00:00 12.7 0 Calma 4 Sudoeste 0 -- -- 85
2020-09-16 04:00:00 13.3 0 Calma 3 Oeste 0 -- -- 83
2020-09-16 03:00:00 13.8 0 Calma 5 Noroeste 0 -- -- 81
2020-09-16 02:00:00 14.5 0 Calma 3 Sudoeste 0 -- -- 79
2020-09-16 01:00:00 15.5 0 Calma 2 Sur 0 -- -- 77
2020-09-16 00:00:00 16.4 0 Calma 6 Norte 0 -- -- 73
2020-09-15 23:00:00 17.3 0 Calma 4 Nordeste 0 -- -- 68
2020-09-15 22:00:00 18.8 0 Calma 17 Noroeste 0 -- -- 62
2020-09-15 21:00:00 20.8 8 Norte 17 Norte 0 -- -- 54
2020-09-15 20:00:00 23.5 9 Norte 16 Sudoeste 0 -- -- 50
2020-09-15 19:00:00 26.4 7 Sudoeste 21 Sudeste 0 -- -- 39
2020-09-15 18:00:00 27.2 9 Sur 27 Sur 0 -- -- 37
2020-09-15 17:00:00 28 9 Sur 26 Oeste 0 -- -- 37
2020-09-15 16:00:00 28.4 11 Sur 28 Sudoeste 0 -- -- 36
2020-09-15 15:00:00 28.3 11 Sudoeste 22 Sudoeste 0 -- -- 37
2020-09-15 14:00:00 26.9 9 Sur 23 Sudoeste 0 -- -- 39
2020-09-15 13:00:00 26 7 Sudoeste 13 Sudoeste 0 -- -- 42
2020-09-15 12:00:00 22.2 3 Sur 7 Nordeste 0 -- -- 58
2020-09-15 11:00:00 20 2 Sudeste 6 Sudeste 0 -- -- 73
2020-09-15 10:00:00 16.8 3 Sudeste 6 Sudoeste 0 -- -- 86
2020-09-15 09:00:00 15 0 Calma 6 Nordeste 0 -- -- 92
2020-09-15 08:00:00 14.9 4 Nordeste 20 Noroeste 0.4 -- -- 88
2020-09-15 07:00:00 14.8 4 Nordeste 10 Nordeste 0.4 -- -- 89
2020-09-15 06:00:00 15.4 4 Nordeste 14 Norte 2.2 -- -- 85
2020-09-15 05:00:00 18.2 3 Sudoeste 11 Sudeste 0.2 -- -- 65
2020-09-15 04:00:00 18 2 Sudoeste 6 Oeste 0 -- -- 60
2020-09-15 03:00:00 16.8 0 Calma 8 Este 0 -- -- 59
2020-09-15 02:00:00 16.8 0 Calma 5 Sudoeste 0 -- -- 62
2020-09-15 01:00:00 16.9 0 Calma 8 Este 0 -- -- 60
2020-09-15 00:00:00 17.1 0 Calma 6 Sur 0 -- -- 60
2020-09-14 23:00:00 18.1 2 Sur 6 Nordeste 0 -- -- 54
2020-09-14 22:00:00 20 0 Calma 5 Noroeste 0 -- -- 48
2020-09-14 21:00:00 22 0 Calma 6 Nordeste 0 -- -- 42
2020-09-14 20:00:00 25.3 5 Sudoeste 22 Sur 0 -- -- 33
2020-09-14 19:00:00 27.2 11 Sudoeste 30 Sudoeste 0 -- -- 28
2020-09-14 18:00:00 28.5 15 Sudoeste 29 Sudoeste 0 -- -- 29
2020-09-14 17:00:00 29.6 12 Sudoeste 33 Sudoeste 0 -- -- 26
2020-09-14 16:00:00 30.5 13 Sudoeste 34 Sudoeste 0 -- -- 25
2020-09-14 15:00:00 30.2 15 Sudoeste 32 Sur 0 -- -- 27
2020-09-14 14:00:00 29.8 13 Sudoeste 31 Sur 0 -- -- 29
2020-09-14 13:00:00 29.1 12 Sudoeste 33 Sur 0 -- -- 28
2020-09-14 12:00:00 28.2 12 Sur 27 Sudoeste 0 -- -- 30
2020-09-14 11:00:00 23.4 4 Sudeste 8 Sur 0 -- -- 44
2020-09-14 10:00:00 17.4 3 Este 5 Sudoeste 0 -- -- 61
2020-09-14 09:00:00 12.9 0 Calma 4 Sur 0 -- -- 72
2020-09-14 08:00:00 11.1 0 Calma 3 Sur 0 -- -- 75
2020-09-14 07:00:00 11.4 0 Calma 5 Sudoeste 0 -- -- 73
2020-09-14 06:00:00 11.6 0 Calma 5 Sudoeste 0 -- -- 73
2020-09-14 05:00:00 11.8 2 Sudoeste 5 Sudeste 0 -- -- 73
2020-09-14 04:00:00 12.4 0 Calma 6 Oeste 0 -- -- 71
2020-09-14 03:00:00 13.3 0 Calma 5 Sudoeste 0 -- -- 68
2020-09-14 02:00:00 14 0 Calma 5 Sudoeste 0 -- -- 65
2020-09-14 01:00:00 15 0 Calma 9 Norte 0 -- -- 63
2020-09-14 00:00:00 15.8 0 Calma 5 Noroeste 0 -- -- 61
2020-09-13 23:00:00 17.5 0 Calma 4 Sudoeste 0 -- -- 55
2020-09-13 22:00:00 19.1 3 Sudoeste 8 Nordeste 0 -- -- 51
2020-09-13 21:00:00 21.5 0 Calma 8 Sudoeste 0 -- -- 43
2020-09-13 20:00:00 25.9 3 Sur 20 Sudoeste 0 -- -- 33
2020-09-13 19:00:00 28.3 8 Sudoeste 21 Sudoeste 0 -- -- 29
2020-09-13 18:00:00 29.6 10 Sur 25 Sudoeste 0 -- -- 27
2020-09-13 17:00:00 30 6 Sur 28 Sudoeste 0 -- -- 27
2020-09-13 16:00:00 30.3 9 Sur 26 Sur 0 -- -- 27
2020-09-13 15:00:00 30 11 Sur 28 Sur 0 -- -- 29
2020-09-13 14:00:00 29.2 11 Sur 27 Sudoeste 0 -- -- 31
2020-09-13 13:00:00 28.4 12 Sudoeste 28 Sudoeste 0 -- -- 33
2020-09-13 12:00:00 27.6 16 Sudoeste 29 Sudoeste 0 -- -- 34
2020-09-13 11:00:00 22.7 3 Este 6 Este 0 -- -- 46
2020-09-13 10:00:00 17 2 Sur 4 Sudeste 0 -- -- 65
2020-09-13 09:00:00 12.3 0 Calma 3 Sur 0 -- -- 83
2020-09-13 08:00:00 10.4 0 Calma 4 Noroeste 0 -- -- 86
2020-09-13 07:00:00 10.8 0 Calma 4 Sudeste 0 -- -- 85
2020-09-13 06:00:00 10.9 0 Calma 4 Sur 0 -- -- 84
2020-09-13 05:00:00 11.7 0 Calma 3 Oeste 0 -- -- 83
2020-09-13 04:00:00 12.5 0 Calma 2 Sudoeste 0 -- -- 81
2020-09-13 03:00:00 13.5 0 Calma 2 Sur 0 -- -- 78
2020-09-13 02:00:00 14.7 0 Calma 3 Sudoeste 0 -- -- 74
2020-09-13 01:00:00 16.1 2 Sudoeste 9 Norte 0 -- -- 70
2020-09-13 00:00:00 18.8 3 Norte 12 Norte 0 -- -- 62
2020-09-12 23:00:00 20.5 6 Nordeste 22 Nordeste 0 -- -- 57
2020-09-12 22:00:00 21.5 11 Noroeste 27 Norte 0 -- -- 55
2020-09-12 21:00:00 21.9 15 Noroeste 32 Noroeste 0 -- -- 55
2020-09-12 20:00:00 22.7 13 Norte 27 Noroeste 0 -- -- 53
2020-09-12 19:00:00 24.7 13 Norte 38 Nordeste 0 -- -- 48
2020-09-12 18:00:00 28.9 6 Sudoeste 24 Sudoeste 0 -- -- 26
2020-09-12 17:00:00 29.1 6 Sudeste 23 Sudoeste 0 -- -- 26
2020-09-12 16:00:00 28.6 6 Este 21 Sudoeste 0 -- -- 25
2020-09-12 15:00:00 28.9 12 Sudoeste 24 Sudoeste 0 -- -- 23
2020-09-12 14:00:00 28.2 8 Sur 30 Sur 0 -- -- 30
2020-09-12 13:00:00 27.4 8 Sur 22 Sudoeste 0 -- -- 34
2020-09-12 12:00:00 25.8 9 Sudoeste 18 Sudoeste 0 -- -- 42
2020-09-12 11:00:00 21.5 3 Sudeste 6 Este 0 -- -- 56
2020-09-12 10:00:00 16.4 3 Este 5 Este 0 -- -- 72
2020-09-12 09:00:00 12.2 0 Calma 3 Noroeste 0 -- -- 90
2020-09-12 08:00:00 10.8 0 Calma 2 Oeste 0 -- -- 89
2020-09-12 07:00:00 11.1 0 Calma 2 Sudoeste 0 -- -- 89
2020-09-12 06:00:00 11.7 2 Sudoeste 3 Oeste 0 -- -- 87
2020-09-12 05:00:00 12.1 0 Calma 2 Noroeste 0 -- -- 87
2020-09-12 04:00:00 12.7 0 Calma 3 Sudoeste 0 -- -- 84
2020-09-12 03:00:00 13.3 0 Calma 4 Sur 0 -- -- 82
2020-09-12 02:00:00 14.3 0 Calma 8 Sudoeste 0 -- -- 80
2020-09-12 01:00:00 15.9 3 Sur 13 Norte 0 -- -- 75
2020-09-12 00:00:00 16.7 5 Sudoeste 11 Norte 0 -- -- 73
2020-09-11 23:00:00 19.1 3 Nordeste 24 Nordeste 0 -- -- 64
2020-09-11 22:00:00 20.4 9 Norte 28 Noroeste 0 -- -- 62
2020-09-11 21:00:00 20.7 14 Noroeste 29 Noroeste 0 -- -- 62
2020-09-11 20:00:00 21.6 12 Noroeste 31 Norte 0 -- -- 59
2020-09-11 19:00:00 23 14 Norte 34 Norte 0 -- -- 55
2020-09-11 18:00:00 25.9 13 Norte 31 Nordeste 0 -- -- 46
2020-09-11 17:00:00 27.6 8 Norte 21 Sudoeste 0 -- -- 37
2020-09-11 16:00:00 28.6 9 Oeste 23 Oeste 0 -- -- 32
2020-09-11 15:00:00 28.4 9 Oeste 23 Sudoeste 0 -- -- 33
2020-09-11 14:00:00 27.6 10 Sur 33 Sur 0 -- -- 35
2020-09-11 13:00:00 26.6 5 Nordeste 14 Sudeste 0 -- -- 35
2020-09-11 12:00:00 25 4 Sudeste 10 Sudoeste 0 -- -- 37
2020-09-11 11:00:00 22.1 4 Sur 6 Sudeste 0 -- -- 45
2020-09-11 10:00:00 16.9 2 Sur 5 Nordeste 0 -- -- 61
2020-09-11 09:00:00 11.9 0 Calma 4 Sur 0 -- -- 79
2020-09-11 08:00:00 10.3 0 Calma 4 Sudoeste 0 -- -- 83
2020-09-11 07:00:00 11.3 2 Sudoeste 13 Sudoeste 0 -- -- 80
2020-09-11 06:00:00 12 7 Sudoeste 14 Sudoeste 0 -- -- 77
2020-09-11 05:00:00 12.2 6 Sudoeste 13 Sudoeste 0 -- -- 76
2020-09-11 04:00:00 12.7 4 Sudoeste 11 Sudoeste 0 -- -- 75
2020-09-11 03:00:00 13.4 4 Sudoeste 13 Sur 0 -- -- 72
2020-09-11 02:00:00 14.2 3 Sudoeste 10 Sur 0 -- -- 69
2020-09-11 01:00:00 15.9 4 Sudoeste 26 Nordeste 0 -- -- 64
2020-09-11 00:00:00 19 12 Nordeste 34 Norte 0 -- -- 56
2020-09-10 23:00:00 19.2 13 Norte 37 Nordeste 0 -- -- 58
2020-09-10 22:00:00 19.5 14 Norte 39 Nordeste 0 -- -- 57
2020-09-10 21:00:00 19.9 18 Norte 39 Noroeste 0 -- -- 56
2020-09-10 20:00:00 20.5 15 Norte 40 Norte 0 -- -- 53
2020-09-10 19:00:00 22.5 14 Norte 34 Norte 0 -- -- 47
2020-09-10 18:00:00 24.3 16 Nordeste 36 Nordeste 0 -- -- 39
2020-09-10 17:00:00 24.9 17 Nordeste 39 Nordeste 0 -- -- 37
2020-09-10 16:00:00 24.8 23 Nordeste 37 Nordeste 0 -- -- 37
2020-09-10 15:00:00 24.6 23 Nordeste 38 Nordeste 0 -- -- 37
2020-09-10 14:00:00 24.2 20 Nordeste 42 Nordeste 0 -- -- 37
2020-09-10 13:00:00 23.6 22 Nordeste 39 Nordeste 0 -- -- 38
2020-09-10 12:00:00 23.3 20 Nordeste 38 Nordeste 0 -- -- 39
2020-09-10 11:00:00 21.9 17 Nordeste 41 Nordeste 0 -- -- 41
2020-09-10 10:00:00 21.9 14 Nordeste 28 Nordeste 0 -- -- 41
2020-09-10 09:00:00 20.1 9 Norte 24 Norte 0 -- -- 45
2020-09-10 08:00:00 19.6 10 Norte 27 Norte 0 -- -- 47
2020-09-10 07:00:00 19 6 Norte 28 Noroeste 0 -- -- 50
2020-09-10 06:00:00 19.2 11 Norte 23 Nordeste 0 -- -- 50
2020-09-10 05:00:00 19.2 13 Norte 32 Nordeste 0 -- -- 53
2020-09-10 04:00:00 19.2 12 Norte 31 Noroeste 0 -- -- 55
2020-09-10 03:00:00 19.3 14 Norte 32 Nordeste 0 -- -- 54
2020-09-10 02:00:00 19.9 9 Norte 27 Nordeste 0 -- -- 51
2020-09-10 01:00:00 19.2 5 Nordeste 17 Nordeste 0 -- -- 52
2020-09-10 00:00:00 19.7 4 Noroeste 20 Norte 0 -- -- 50
2020-09-09 23:00:00 20 7 Norte 32 Noroeste 0 -- -- 48
2020-09-09 22:00:00 20 14 Nordeste 30 Nordeste 0 -- -- 49
2020-09-09 21:00:00 20.3 9 Norte 28 Norte 0 -- -- 48
2020-09-09 20:00:00 20.8 12 Norte 33 Nordeste 0 -- -- 47
2020-09-09 19:00:00 21.2 13 Norte 42 Nordeste 0 -- -- 47
2020-09-09 18:00:00 22.8 19 Nordeste 45 Nordeste 0 -- -- 43
2020-09-09 17:00:00 23.6 23 Nordeste 46 Norte 0 -- -- 43
2020-09-09 16:00:00 23.6 15 Nordeste 37 Nordeste 0 -- -- 42
2020-09-09 15:00:00 24.4 21 Nordeste 38 Nordeste 0 -- -- 41
2020-09-09 14:00:00 26.3 8 Este 23 Nordeste 0 -- -- 37
2020-09-09 13:00:00 23.5 4 Sur 13 Sur 0 -- -- 38
2020-09-09 12:00:00 22 7 Sur 14 Sudoeste 0 -- -- 41
2020-09-09 11:00:00 15.4 5 Sudoeste 10 Sudoeste 0 -- -- 60
2020-09-09 10:00:00 12.3 2 Sudoeste 6 Sudeste 0 -- -- 72
2020-09-09 09:00:00 8.6 0 Calma 6 Noroeste 0 -- -- 84
2020-09-09 08:00:00 7.8 2 Sudoeste 6 Noroeste 0 -- -- 85
2020-09-09 07:00:00 8.1 2 Sur 4 Sudoeste 0 -- -- 84
2020-09-09 06:00:00 8.4 0 Calma 3 Oeste 0 -- -- 83
2020-09-09 05:00:00 8.7 0 Calma 5 Noroeste 0 -- -- 82
2020-09-09 04:00:00 9.6 2 Sudoeste 5 Nordeste 0 -- -- 79
2020-09-09 03:00:00 10.1 0 Calma 8 Noroeste 0 -- -- 77
2020-09-09 02:00:00 11.3 3 Sudoeste 5 Sudoeste 0 -- -- 73
2020-09-09 01:00:00 11.9 0 Calma 8 Norte 0 -- -- 71
2020-09-09 00:00:00 13.4 0 Calma 7 Noroeste 0 -- -- 65
2020-09-08 23:00:00 14.9 2 Nordeste 5 Noroeste 0 -- -- 60
2020-09-08 22:00:00 16.9 4 Sur 16 Norte 0 -- -- 55
2020-09-08 21:00:00 19.7 5 Norte 15 Nordeste 0 -- -- 47
2020-09-08 20:00:00 21.3 6 Norte 20 Sudoeste 0 -- -- 42
2020-09-08 19:00:00 24.4 12 Oeste 24 Noroeste 0 -- -- 33
2020-09-08 18:00:00 26.2 8 Sudoeste 28 Sudoeste 0 -- -- 24
2020-09-08 17:00:00 26.6 7 Sur 22 Sudoeste 0 -- -- 24
2020-09-08 16:00:00 26.1 6 Sudeste 18 Sudoeste 0 -- -- 24
2020-09-08 15:00:00 25.2 7 Sur 23 Sudoeste 0 -- -- 24
2020-09-08 14:00:00 25 11 Sur 22 Sudoeste 0 -- -- 24
2020-09-08 13:00:00 23.1 5 Sur 13 Sudoeste 0 -- -- 25
2020-09-08 12:00:00 21.1 6 Sudeste 11 Sudeste 0 -- -- 27
2020-09-08 11:00:00 17.4 4 Sudeste 8 Nordeste 0 -- -- 37
2020-09-08 10:00:00 12.3 3 Sudeste 6 Este 0 -- -- 54
2020-09-08 09:00:00 7.3 0 Calma 2 Nordeste 0 -- -- 70
2020-09-08 08:00:00 4.8 0 Calma 4 Oeste 0 -- -- 77
2020-09-08 07:00:00 5.5 0 Calma 4 Nordeste 0 -- -- 74
2020-09-08 06:00:00 6 0 Calma 6 Sur 0 -- -- 71
2020-09-08 05:00:00 7.2 3 Oeste 8 Sudoeste 0 -- -- 65
2020-09-08 04:00:00 8.6 3 Sudoeste 8 Sudoeste 0 -- -- 60
2020-09-08 03:00:00 10.4 4 Sudoeste 34 Nordeste 0 -- -- 53
2020-09-08 02:00:00 14.1 16 Nordeste 44 Norte 0 -- -- 46
2020-09-08 01:00:00 14.1 18 Norte 44 Nordeste 0 -- -- 45
2020-09-08 00:00:00 14.2 19 Norte 54 Noroeste 0 -- -- 47
2020-09-07 23:00:00 14.1 21 Norte 49 Nordeste 0 -- -- 48
2020-09-07 22:00:00 14.2 31 Nordeste 55 Nordeste 0 -- -- 48
2020-09-07 21:00:00 14.3 35 Nordeste 68 Nordeste 0 -- -- 49
2020-09-07 20:00:00 14.7 24 Norte 52 Nordeste 0 -- -- 47
2020-09-07 19:00:00 15.7 23 Norte 58 Nordeste 0 -- -- 46
2020-09-07 18:00:00 16.7 32 Nordeste 57 Nordeste 0 -- -- 44
2020-09-07 17:00:00 17.5 24 Nordeste 54 Nordeste 0 -- -- 42
2020-09-07 16:00:00 18.4 24 Nordeste 53 Nordeste 0 -- -- 39
2020-09-07 15:00:00 17.8 25 Norte 54 Norte 0 -- -- 42
2020-09-07 14:00:00 17.3 23 Norte 59 Nordeste 0 -- -- 43
2020-09-07 13:00:00 16.9 20 Norte 55 Nordeste 0 -- -- 44
2020-09-07 12:00:00 16.2 19 Norte 61 Nordeste 0 -- -- 45
2020-09-07 11:00:00 15.1 32 Nordeste 66 Nordeste 0 -- -- 49
2020-09-07 10:00:00 14.1 32 Nordeste 60 Nordeste 0 -- -- 52
2020-09-07 09:00:00 13.5 18 Norte 48 Nordeste 0 -- -- 54
2020-09-07 08:00:00 12.1 17 Norte 49 Norte 0 -- -- 58
2020-09-07 07:00:00 12.2 15 Norte 42 Norte 0 -- -- 56
2020-09-07 06:00:00 12.3 17 Norte 47 Nordeste 0 -- -- 57
2020-09-07 05:00:00 12.4 17 Norte 55 Noroeste 0 -- -- 59
2020-09-07 04:00:00 12.9 20 Norte 48 Norte 0 -- -- 59
2020-09-07 03:00:00 13 18 Norte 49 Nordeste 0 -- -- 60
2020-09-07 02:00:00 13.3 19 Norte 54 Nordeste 0 -- -- 62
2020-09-07 01:00:00 13.6 24 Norte 62 Noroeste 0 -- -- 62
2020-09-07 00:00:00 14.8 17 Norte 55 Noroeste 0 -- -- 54
2020-09-06 23:00:00 14.8 26 Noroeste 52 Nordeste 0 -- -- 58
2020-09-06 22:00:00 15 26 Norte 55 Nordeste 0 -- -- 58
2020-09-06 21:00:00 15.6 23 Norte 57 Norte 0 -- -- 56
2020-09-06 20:00:00 15.9 21 Noroeste 51 Noroeste 0 -- -- 52
2020-09-06 19:00:00 17.1 24 Noroeste 49 Norte 0 -- -- 52
2020-09-06 18:00:00 19.4 21 Noroeste 37 Noroeste 0 -- -- 50
2020-09-06 17:00:00 22.4 10 Norte 36 Norte 0 -- -- 45
2020-09-06 16:00:00 24.8 14 Noroeste 25 Oeste 0 -- -- 37
2020-09-06 15:00:00 24.5 14 Oeste 24 Noroeste 0 -- -- 39
2020-09-06 14:00:00 24 9 Oeste 23 Noroeste 0 -- -- 43
2020-09-06 13:00:00 23.3 8 Oeste 24 Oeste 0 -- -- 45
2020-09-06 12:00:00 21.5 7 Oeste 20 Este 0 -- -- 50
2020-09-06 11:00:00 18.9 6 Este 12 Este 0 -- -- 58
2020-09-06 10:00:00 15.2 3 Este 6 Nordeste 0 -- -- 74
2020-09-06 09:00:00 10.8 4 Nordeste 6 Nordeste 0 -- -- 90
2020-09-06 08:00:00 9.6 0 Calma 4 Noroeste 0 -- -- 91
2020-09-06 07:00:00 9.9 0 Calma 4 Nordeste 0 -- -- 91
2020-09-06 06:00:00 10.2 2 Nordeste 4 Norte 0 -- -- 90
2020-09-06 05:00:00 11.1 0 Calma 3 Sudoeste 0 -- -- 89
2020-09-06 04:00:00 11.6 0 Calma 3 Oeste 0 -- -- 87
2020-09-06 03:00:00 12.3 0 Calma 3 Noroeste 0 -- -- 87
2020-09-06 02:00:00 13 0 Calma 4 Este 0 -- -- 85
2020-09-06 01:00:00 13.9 0 Calma 4 Este 0 -- -- 83
2020-09-06 00:00:00 15 0 Calma 6 Noroeste 0 -- -- 79
2020-09-05 23:00:00 16.3 0 Calma 14 Oeste 0 -- -- 74
2020-09-05 22:00:00 18.9 13 Noroeste 28 Norte 0 -- -- 64
2020-09-05 21:00:00 20.4 14 Norte 34 Noroeste 0 -- -- 61
2020-09-05 20:00:00 21.7 14 Norte 38 Este 0 -- -- 59
2020-09-05 19:00:00 23.5 15 Norte 31 Norte 0 -- -- 54
2020-09-05 18:00:00 26.8 15 Noroeste 30 Noroeste 0 -- -- 45
2020-09-05 17:00:00 29.2 13 Noroeste 28 Oeste 0 -- -- 38
2020-09-05 16:00:00 29.5 14 Oeste 24 Noroeste 0 -- -- 37
2020-09-05 15:00:00 29.5 12 Sudoeste 25 Sudoeste 0 -- -- 37
2020-09-05 14:00:00 29 9 Sudoeste 22 Noroeste 0 -- -- 35
2020-09-05 13:00:00 28.1 9 Oeste 18 Oeste 0 -- -- 34
2020-09-05 12:00:00 26.2 5 Sur 10 Sur 0 -- -- 38
2020-09-05 11:00:00 22.7 4 Sur 8 Sur 0 -- -- 46
2020-09-05 10:00:00 17.2 3 Este 6 Nordeste 0 -- -- 58
2020-09-05 09:00:00 12.1 0 Calma 5 Nordeste 0 -- -- 75
2020-09-05 08:00:00 10.3 0 Calma 3 Sudoeste 0 -- -- 78
2020-09-05 07:00:00 10.5 3 Sudoeste 7 Norte 0 -- -- 78
2020-09-05 06:00:00 11 0 Calma 4 Nordeste 0 -- -- 75
2020-09-05 05:00:00 11.5 0 Calma 3 Sudoeste 0 -- -- 72
2020-09-05 04:00:00 12.3 0 Calma 0 Calma 0 -- -- 70
2020-09-05 03:00:00 13.1 0 Calma 2 Sudoeste 0 -- -- 66
2020-09-05 02:00:00 13.8 0 Calma 3 Sudoeste 0 -- -- 65
2020-09-05 01:00:00 14.6 0 Calma 3 Sudoeste 0 -- -- 61
2020-09-05 00:00:00 15.9 0 Calma 3 Oeste 0 -- -- 56
2020-09-04 23:00:00 17.7 0 Calma 2 Oeste 0 -- -- 50
2020-09-04 22:00:00 19.2 0 Calma 10 Noroeste 0 -- -- 47
2020-09-04 21:00:00 21.2 4 Nordeste 14 Norte 0 -- -- 44
2020-09-04 20:00:00 26.2 2 Nordeste 12 Sudoeste 0 -- -- 31
2020-09-04 19:00:00 29.6 7 Sudoeste 18 Sudoeste 0 -- -- 25
2020-09-04 18:00:00 30.2 6 Sur 28 Sudoeste 0 -- -- 25
2020-09-04 17:00:00 30.7 8 Sudoeste 31 Sudoeste 0 -- -- 26
2020-09-04 16:00:00 30.3 12 Sudoeste 33 Sudoeste 0 -- -- 27
2020-09-04 15:00:00 30.3 10 Sur 26 Sudoeste 0 -- -- 25
2020-09-04 14:00:00 29.5 12 Sudoeste 25 Sudoeste 0 -- -- 26
2020-09-04 13:00:00 28.5 14 Sudoeste 24 Sudoeste 0 -- -- 27
2020-09-04 12:00:00 26.8 10 Sudoeste 17 Sudoeste 0 -- -- 31
2020-09-04 11:00:00 21.5 4 Este 9 Nordeste 0 -- -- 39
2020-09-04 10:00:00 15.6 5 Nordeste 8 Nordeste 0 -- -- 57
2020-09-04 09:00:00 11 0 Calma 2 Nordeste 0 -- -- 74
2020-09-04 08:00:00 8.8 0 Calma 3 Oeste 0 -- -- 76
2020-09-04 07:00:00 8.7 0 Calma 2 Oeste 0 -- -- 78
2020-09-04 06:00:00 9.1 0 Calma 3 Sudoeste 0 -- -- 76
2020-09-04 05:00:00 10.1 0 Calma 3 Noroeste 0 -- -- 73
2020-09-04 04:00:00 10.5 2 Este 4 Nordeste 0 -- -- 73
2020-09-04 03:00:00 11.6 0 Calma 5 Sudoeste 0 -- -- 70
2020-09-04 02:00:00 12.5 0 Calma 3 Nordeste 0 -- -- 67
2020-09-04 01:00:00 13.8 0 Calma 2 Oeste 0 -- -- 62
2020-09-04 00:00:00 15.2 0 Calma 4 Sudoeste 0 -- -- 57
2020-09-03 23:00:00 16.9 0 Calma 4 Sur 0 -- -- 52
2020-09-03 22:00:00 18.6 0 Calma 8 Nordeste 0 -- -- 45
2020-09-03 21:00:00 21.7 3 Nordeste 8 Sudoeste 0 -- -- 35
2020-09-03 20:00:00 26.1 4 Sudoeste 18 Sur 0 -- -- 26
2020-09-03 19:00:00 28.6 5 Sudoeste 16 Oeste 0 -- -- 26
2020-09-03 18:00:00 29.3 7 Sur 21 Sudoeste 0 -- -- 27
2020-09-03 17:00:00 29.3 8 Sur 26 Sudoeste 0 -- -- 25
2020-09-03 16:00:00 29 9 Sudoeste 21 Sudoeste 0 -- -- 27
2020-09-03 15:00:00 28.5 9 Sur 24 Sur 0 -- -- 26
2020-09-03 14:00:00 27.6 10 Sur 24 Sudoeste 0 -- -- 28
2020-09-03 13:00:00 26.4 7 Sudoeste 15 Sur 0 -- -- 30
2020-09-03 12:00:00 24.7 6 Sur 11 Sur 0 -- -- 34
2020-09-03 11:00:00 20.8 3 Este 8 Este 0 -- -- 42
2020-09-03 10:00:00 15 4 Este 5 Este 0 -- -- 60
2020-09-03 09:00:00 9.7 0 Calma 4 Sudoeste 0 -- -- 79
2020-09-03 08:00:00 7.3 0 Calma 2 Sur 0 -- -- 82
2020-09-03 07:00:00 7.4 0 Calma 3 Sur 0 -- -- 82
2020-09-03 06:00:00 7.9 0 Calma 4 Sudoeste 0 -- -- 80
2020-09-03 05:00:00 8.5 0 Calma 3 Sur 0 -- -- 77
2020-09-03 04:00:00 9.3 0 Calma 4 Oeste 0 -- -- 75
2020-09-03 03:00:00 10.2 0 Calma 4 Sudoeste 0 -- -- 73
2020-09-03 02:00:00 11.7 3 Oeste 11 Norte 0 -- -- 69
2020-09-03 01:00:00 14.6 7 Norte 18 Norte 0 -- -- 57
2020-09-03 00:00:00 15.8 12 Nordeste 33 Nordeste 0 -- -- 55
2020-09-02 23:00:00 16.5 15 Norte 36 Norte 0 -- -- 54
2020-09-02 22:00:00 17 13 Norte 40 Nordeste 0 -- -- 55
2020-09-02 21:00:00 17.4 16 Norte 39 Nordeste 0 -- -- 54
2020-09-02 20:00:00 18.4 17 Noroeste 33 Noroeste 0 -- -- 52
2020-09-02 19:00:00 20.7 15 Noroeste 37 Norte 0 -- -- 46
2020-09-02 18:00:00 23.5 9 Norte 27 Nordeste 0 -- -- 38
2020-09-02 17:00:00 25.5 11 Oeste 26 Oeste 0 -- -- 32
2020-09-02 16:00:00 25.1 14 Oeste 26 Sudoeste 0 -- -- 32
2020-09-02 15:00:00 24.7 9 Oeste 26 Noroeste 0 -- -- 31
2020-09-02 14:00:00 23.6 9 Norte 22 Noroeste 0 -- -- 33
2020-09-02 13:00:00 22.2 14 Nordeste 25 Nordeste 0 -- -- 35
2020-09-02 12:00:00 20.7 16 Nordeste 30 Norte 0 -- -- 38
2020-09-02 11:00:00 19.5 12 Nordeste 19 Norte 0 -- -- 43
2020-09-02 10:00:00 16.9 5 Este 10 Este 0 -- -- 54
2020-09-02 09:00:00 11.5 6 Sudoeste 13 Sudoeste 0 -- -- 73
2020-09-02 08:00:00 8.9 4 Sudeste 13 Sudoeste 0 -- -- 80
2020-09-02 07:00:00 8.9 4 Sudoeste 16 Sudoeste 0 -- -- 80
2020-09-02 06:00:00 9.2 3 Sur 14 Sur 0 -- -- 79
2020-09-02 05:00:00 9.8 6 Sudoeste 20 Sudoeste 0 -- -- 76
2020-09-02 04:00:00 10.6 8 Sudoeste 14 Sur 0 -- -- 72
2020-09-02 03:00:00 12.6 6 Sur 31 Nordeste 0 -- -- 65
2020-09-02 02:00:00 15.2 12 Nordeste 33 Norte 0 -- -- 59
2020-09-02 01:00:00 15.7 13 Norte 39 Nordeste 0 -- -- 56
2020-09-02 00:00:00 15.9 16 Norte 41 Nordeste 0 -- -- 57
2020-09-01 23:00:00 16.1 15 Norte 48 Norte 0 -- -- 55
2020-09-01 22:00:00 16.7 20 Norte 50 Nordeste 0 -- -- 54
2020-09-01 21:00:00 16.8 19 Norte 54 Norte 0 -- -- 54
2020-09-01 20:00:00 17.8 17 Norte 39 Nordeste 0 -- -- 50
2020-09-01 19:00:00 19.7 16 Norte 39 Nordeste 0 -- -- 44
2020-09-01 18:00:00 20.9 21 Norte 41 Nordeste 0 -- -- 43
2020-09-01 17:00:00 22.8 10 Norte 39 Oeste 0 -- -- 35
2020-09-01 16:00:00 24.5 12 Oeste 26 Noroeste 0 -- -- 26
2020-09-01 15:00:00 24.3 11 Noroeste 27 Noroeste 0 -- -- 22
2020-09-01 14:00:00 23.7 13 Oeste 28 Noroeste 0 -- -- 23
2020-09-01 13:00:00 22.7 10 Oeste 19 Noroeste 0 -- -- 32
2020-09-01 12:00:00 21.2 5 Sudeste 12 Sudeste 0 -- -- 35
2020-09-01 11:00:00 15.5 3 Sur 5 Este 0 -- -- 44
2020-09-01 10:00:00 11 0 Calma 4 Nordeste 0 -- -- 59
2020-09-01 09:00:00 7.4 0 Calma 4 Oeste 0 -- -- 81
2020-09-01 08:00:00 6.3 0 Calma 3 Sudoeste 0 -- -- 77
2020-09-01 07:00:00 6.5 0 Calma 3 Este 0 -- -- 73
2020-09-01 06:00:00 7.2 2 Sudoeste 4 Sudoeste 0 -- -- 71
2020-09-01 05:00:00 7.4 0 Calma 5 Oeste 0 -- -- 74
2020-09-01 04:00:00 8.1 0 Calma 5 Este 0 -- -- 72
2020-09-01 03:00:00 9.6 2 Sudoeste 6 Nordeste 0 -- -- 71
2020-09-01 02:00:00 11.2 0 Calma 5 Sur 0 -- -- 71
2020-09-01 01:00:00 12.8 3 Sudoeste 10 Noroeste 0 -- -- 68
2020-09-01 00:00:00 13.4 0 Calma 5 Noroeste 0 -- -- 67
2020-08-31 23:00:00 14.6 0 Calma 5 Nordeste 0 -- -- 63
2020-08-31 22:00:00 16 3 Norte 13 Norte 0 -- -- 59
2020-08-31 21:00:00 17.2 5 Norte 23 Oeste 0 -- -- 55
2020-08-31 20:00:00 19 10 Oeste 27 Oeste 0 -- -- 50
2020-08-31 19:00:00 21.9 18 Oeste 28 Oeste 0 -- -- 40
2020-08-31 18:00:00 23.9 9 Oeste 22 Sudoeste 0 -- -- 27
2020-08-31 17:00:00 23.9 7 Oeste 26 Oeste 0 -- -- 27
2020-08-31 16:00:00 23.5 9 Sur 23 Oeste 0 -- -- 27
2020-08-31 15:00:00 23.3 9 Sur 23 Sudoeste 0 -- -- 29
2020-08-31 14:00:00 21.9 6 Sur 23 Sudoeste 0 -- -- 31
2020-08-31 13:00:00 20.9 6 Sur 19 Sur 0 -- -- 33
2020-08-31 12:00:00 18.9 7 Sur 12 Sudeste 0 -- -- 38
2020-08-31 11:00:00 15.9 4 Sudoeste 9 Sudoeste 0 -- -- 46
2020-08-31 10:00:00 11.3 3 Este 6 Este 0 -- -- 62
2020-08-31 09:00:00 6.2 0 Calma 4 Nordeste 0 -- -- 82
2020-08-31 08:00:00 3.8 0 Calma 3 Sudoeste 0 -- -- 87
2020-08-31 07:00:00 4.5 2 Sudoeste 4 Sur 0 -- -- 85
2020-08-31 06:00:00 5.2 3 Sudoeste 8 Oeste 0 -- -- 83
2020-08-31 05:00:00 5.9 2 Sudoeste 7 Sudoeste 0 -- -- 81
2020-08-31 04:00:00 6.8 2 Sur 11 Sudoeste 0 -- -- 77
2020-08-31 03:00:00 8.8 0 Calma 28 Nordeste 0 -- -- 68
2020-08-31 02:00:00 11.8 11 Norte 28 Norte 0 -- -- 58
2020-08-31 01:00:00 12.2 13 Norte 42 Nordeste 0 -- -- 58
2020-08-31 00:00:00 12.7 17 Norte 41 Norte 0 -- -- 59
2020-08-30 23:00:00 12.9 16 Norte 48 Nordeste 0 -- -- 58
2020-08-30 22:00:00 12.8 17 Norte 49 Nordeste 0 -- -- 57
2020-08-30 21:00:00 12.9 19 Norte 55 Norte 0 -- -- 57
2020-08-30 20:00:00 13.5 22 Norte 53 Nordeste 0 -- -- 56
2020-08-30 19:00:00 14.3 22 Norte 59 Norte 0 -- -- 55
2020-08-30 18:00:00 15.6 24 Norte 52 Nordeste 0 -- -- 50
2020-08-30 17:00:00 16.8 23 Norte 53 Nordeste 0 -- -- 47
2020-08-30 16:00:00 17.9 23 Nordeste 50 Norte 0 -- -- 44
2020-08-30 15:00:00 18 21 Nordeste 46 Nordeste 0 -- -- 42
2020-08-30 14:00:00 17.7 21 Nordeste 38 Norte 0 -- -- 44
2020-08-30 13:00:00 17.3 21 Nordeste 34 Nordeste 0 -- -- 44
2020-08-30 12:00:00 16.7 15 Nordeste 41 Nordeste 0 -- -- 46
2020-08-30 11:00:00 15.1 9 Nordeste 32 Oeste 0 -- -- 52
2020-08-30 10:00:00 11.7 19 Oeste 31 Oeste 0 -- -- 72
2020-08-30 09:00:00 10.3 11 Noroeste 29 Oeste 0 -- -- 77
2020-08-30 08:00:00 10 17 Noroeste 30 Oeste 0 -- -- 78
2020-08-30 07:00:00 10.4 4 Noroeste 28 Oeste 0 -- -- 71
2020-08-30 06:00:00 10.7 9 Norte 32 Oeste 0 -- -- 66
2020-08-30 05:00:00 10.8 10 Noroeste 32 Norte 0 -- -- 59
2020-08-30 04:00:00 11.7 14 Noroeste 37 Norte 0 -- -- 58
2020-08-30 03:00:00 11.7 8 Norte 31 Noroeste 0 -- -- 58
2020-08-30 02:00:00 11.3 8 Norte 26 Nordeste 0 -- -- 64
2020-08-30 01:00:00 11.7 10 Noroeste 26 Noroeste 0 -- -- 64
2020-08-30 00:00:00 12.3 11 Noroeste 22 Noroeste 0 -- -- 69
2020-08-29 23:00:00 13.1 6 Noroeste 28 Norte 0 -- -- 61
2020-08-29 22:00:00 13.4 10 Norte 32 Noroeste 0 -- -- 57
2020-08-29 21:00:00 13.8 14 Noroeste 37 Noroeste 0 -- -- 55
2020-08-29 20:00:00 14.3 10 Noroeste 26 Nordeste 0 -- -- 55
2020-08-29 19:00:00 15 11 Noroeste 39 Noroeste 0 -- -- 52
2020-08-29 18:00:00 17.8 14 Noroeste 38 Noroeste 0 -- -- 44
2020-08-29 17:00:00 19.1 14 Norte 37 Nordeste 0 -- -- 42
2020-08-29 16:00:00 18.9 15 Norte 37 Nordeste 0 -- -- 42
2020-08-29 15:00:00 19.3 20 Nordeste 39 Nordeste 0 -- -- 40
2020-08-29 14:00:00 19 22 Nordeste 39 Nordeste 0 -- -- 41
2020-08-29 13:00:00 18.6 19 Norte 45 Nordeste 0 -- -- 42
2020-08-29 12:00:00 17.3 16 Norte 39 Nordeste 0 -- -- 45
2020-08-29 11:00:00 16.7 15 Norte 38 Norte 0 -- -- 47
2020-08-29 10:00:00 16.2 12 Norte 36 Nordeste 0 -- -- 45
2020-08-29 09:00:00 14.2 17 Noroeste 37 Nordeste 0 -- -- 50
2020-08-29 08:00:00 12.7 15 Noroeste 36 Noroeste 0 -- -- 56
2020-08-29 07:00:00 10.9 6 Nordeste 29 Norte 0 -- -- 65
2020-08-29 06:00:00 13.4 13 Noroeste 29 Nordeste 0 -- -- 53
2020-08-29 05:00:00 14 10 Noroeste 36 Norte 0 -- -- 50
2020-08-29 04:00:00 14.2 9 Norte 33 Nordeste 0 -- -- 52
2020-08-29 03:00:00 14.2 18 Noroeste 37 Noroeste 0 -- -- 53
2020-08-29 02:00:00 14.1 17 Noroeste 39 Norte 0 -- -- 53
2020-08-29 01:00:00 14.2 19 Noroeste 36 Noroeste 0 -- -- 50
2020-08-29 00:00:00 14 18 Noroeste 42 Noroeste 0 -- -- 59
2020-08-28 23:00:00 14.9 17 Noroeste 41 Noroeste 0 -- -- 61
2020-08-28 22:00:00 15.9 19 Noroeste 43 Noroeste 0 -- -- 61
2020-08-28 21:00:00 16.6 14 Noroeste 30 Noroeste 0 -- -- 60
2020-08-28 20:00:00 17.8 17 Noroeste 27 Noroeste 0 -- -- 58
2020-08-28 19:00:00 20 12 Noroeste 29 Nordeste 0 -- -- 53
2020-08-28 18:00:00 20.7 10 Norte 28 Nordeste 0 -- -- 53
2020-08-28 17:00:00 20.1 14 Norte 32 Nordeste 0 -- -- 56
2020-08-28 16:00:00 20.8 6 Noroeste 27 Noroeste 0 -- -- 57
2020-08-28 15:00:00 19.7 12 Noroeste 31 Oeste 0 -- -- 61
2020-08-28 14:00:00 19.6 12 Oeste 26 Noroeste 0 -- -- 62
2020-08-28 13:00:00 20.6 14 Noroeste 23 Oeste 0 -- -- 64
2020-08-28 12:00:00 21.1 6 Oeste 27 Oeste 0 -- -- 65
2020-08-28 11:00:00 20.1 0 Calma 9 Nordeste 0 -- -- 60
2020-08-28 10:00:00 18.3 3 Nordeste 8 Norte 0 -- -- 69
2020-08-28 09:00:00 16.5 0 Calma 5 Noroeste 0 -- -- 74
2020-08-28 08:00:00 15.3 0 Calma 5 Noroeste 0 -- -- 78
2020-08-28 07:00:00 14.9 0 Calma 5 Noroeste 0 -- -- 79
2020-08-28 06:00:00 15 0 Calma 4 Oeste 0 -- -- 77
2020-08-28 05:00:00 15.8 0 Calma 9 Noroeste 0 -- -- 74
2020-08-28 04:00:00 16.8 4 Norte 9 Norte 0 -- -- 68
2020-08-28 03:00:00 18 0 Calma 4 Sudeste 0 -- -- 67
2020-08-28 02:00:00 18.9 0 Calma 5 Noroeste 0 -- -- 66
2020-08-28 01:00:00 19.9 0 Calma 9 Nordeste 0 -- -- 63
2020-08-28 00:00:00 21.8 0 Calma 9 Nordeste 0 -- -- 52